sensor_id;sensor_type;location;lat;lon;timestamp;P1;durP1;ratioP1;P2;durP2;ratioP2
19998;SDS011;10160;50.926;4.374;2023-07-09T00:00:52;12.93;;;5.60;;
19998;SDS011;10160;50.926;4.374;2023-07-09T00:03:18;13.95;;;6.00;;
19998;SDS011;10160;50.926;4.374;2023-07-09T00:05:45;10.40;;;5.68;;
19998;SDS011;10160;50.926;4.374;2023-07-09T00:08:21;10.43;;;5.43;;
19998;SDS011;10160;50.926;4.374;2023-07-09T00:10:52;12.60;;;5.88;;
19998;SDS011;10160;50.926;4.374;2023-07-09T00:13:19;13.55;;;5.38;;
19998;SDS011;10160;50.926;4.374;2023-07-09T00:15:45;15.27;;;6.13;;
19998;SDS011;10160;50.926;4.374;2023-07-09T00:18:10;10.15;;;5.18;;
19998;SDS011;10160;50.926;4.374;2023-07-09T00:20:36;11.18;;;6.00;;
19998;SDS011;10160;50.926;4.374;2023-07-09T00:23:02;9.27;;;5.50;;
19998;SDS011;10160;50.926;4.374;2023-07-09T00:25:29;11.25;;;5.72;;
19998;SDS011;10160;50.926;4.374;2023-07-09T00:27:55;13.65;;;5.70;;
19998;SDS011;10160;50.926;4.374;2023-07-09T00:30:21;10.35;;;5.88;;
19998;SDS011;10160;50.926;4.374;2023-07-09T00:32:48;13.40;;;5.78;;
19998;SDS011;10160;50.926;4.374;2023-07-09T00:35:14;11.45;;;5.68;;
19998;SDS011;10160;50.926;4.374;2023-07-09T00:37:41;13.02;;;5.20;;
19998;SDS011;10160;50.926;4.374;2023-07-09T00:40:10;10.52;;;5.38;;
19998;SDS011;10160;50.926;4.374;2023-07-09T00:42:43;9.77;;;5.15;;
19998;SDS011;10160;50.926;4.374;2023-07-09T00:45:23;10.77;;;5.63;;
19998;SDS011;10160;50.926;4.374;2023-07-09T00:50:39;12.10;;;5.55;;
19998;SDS011;10160;50.926;4.374;2023-07-09T00:56:02;11.45;;;5.28;;
19998;SDS011;10160;50.926;4.374;2023-07-09T00:58:31;10.80;;;6.28;;
19998;SDS011;10160;50.926;4.374;2023-07-09T01:01:02;11.32;;;6.05;;
19998;SDS011;10160;50.926;4.374;2023-07-09T01:03:37;14.23;;;5.50;;
19998;SDS011;10160;50.926;4.374;2023-07-09T01:06:07;11.43;;;5.88;;
19998;SDS011;10160;50.926;4.374;2023-07-09T01:08:35;11.68;;;5.57;;
19998;SDS011;10160;50.926;4.374;2023-07-09T01:11:02;12.75;;;6.25;;
19998;SDS011;10160;50.926;4.374;2023-07-09T01:13:31;12.13;;;5.78;;
19998;SDS011;10160;50.926;4.374;2023-07-09T01:15:57;15.23;;;6.45;;
19998;SDS011;10160;50.926;4.374;2023-07-09T01:18:23;13.07;;;6.20;;
19998;SDS011;10160;50.926;4.374;2023-07-09T01:20:50;14.77;;;6.47;;
19998;SDS011;10160;50.926;4.374;2023-07-09T01:23:18;15.77;;;6.95;;
19998;SDS011;10160;50.926;4.374;2023-07-09T01:25:45;15.48;;;6.40;;
19998;SDS011;10160;50.926;4.374;2023-07-09T01:28:17;15.63;;;7.00;;
19998;SDS011;10160;50.926;4.374;2023-07-09T01:30:43;12.85;;;6.47;;
19998;SDS011;10160;50.926;4.374;2023-07-09T01:33:09;13.90;;;6.22;;
19998;SDS011;10160;50.926;4.374;2023-07-09T01:35:36;15.07;;;6.50;;
19998;SDS011;10160;50.926;4.374;2023-07-09T01:38:06;13.48;;;6.35;;
19998;SDS011;10160;50.926;4.374;2023-07-09T01:40:32;16.60;;;6.28;;
19998;SDS011;10160;50.926;4.374;2023-07-09T01:42:59;14.32;;;6.20;;
19998;SDS011;10160;50.926;4.374;2023-07-09T01:45:26;14.52;;;6.43;;
19998;SDS011;10160;50.926;4.374;2023-07-09T01:47:53;14.50;;;6.72;;
19998;SDS011;10160;50.926;4.374;2023-07-09T01:50:20;18.30;;;6.78;;
19998;SDS011;10160;50.926;4.374;2023-07-09T01:52:46;19.10;;;6.30;;
19998;SDS011;10160;50.926;4.374;2023-07-09T01:55:14;19.38;;;6.97;;
19998;SDS011;10160;50.926;4.374;2023-07-09T01:57:42;17.25;;;6.53;;
19998;SDS011;10160;50.926;4.374;2023-07-09T02:00:12;13.85;;;6.78;;
19998;SDS011;10160;50.926;4.374;2023-07-09T02:02:40;16.98;;;6.80;;
19998;SDS011;10160;50.926;4.374;2023-07-09T02:05:14;15.05;;;6.43;;
19998;SDS011;10160;50.926;4.374;2023-07-09T02:07:42;16.02;;;6.60;;
19998;SDS011;10160;50.926;4.374;2023-07-09T02:10:08;14.88;;;6.57;;
19998;SDS011;10160;50.926;4.374;2023-07-09T02:12:35;12.80;;;6.03;;
19998;SDS011;10160;50.926;4.374;2023-07-09T02:15:00;17.45;;;7.03;;
19998;SDS011;10160;50.926;4.374;2023-07-09T02:17:27;14.45;;;6.55;;
19998;SDS011;10160;50.926;4.374;2023-07-09T02:19:55;15.93;;;6.72;;
19998;SDS011;10160;50.926;4.374;2023-07-09T02:22:21;16.67;;;6.60;;
19998;SDS011;10160;50.926;4.374;2023-07-09T02:24:47;17.92;;;7.00;;
19998;SDS011;10160;50.926;4.374;2023-07-09T02:27:14;13.48;;;6.47;;
19998;SDS011;10160;50.926;4.374;2023-07-09T02:29:41;16.00;;;6.90;;
19998;SDS011;10160;50.926;4.374;2023-07-09T02:32:07;10.90;;;6.43;;
19998;SDS011;10160;50.926;4.374;2023-07-09T02:34:33;19.92;;;7.95;;
19998;SDS011;10160;50.926;4.374;2023-07-09T02:37:00;12.70;;;6.20;;
19998;SDS011;10160;50.926;4.374;2023-07-09T02:39:26;12.30;;;6.50;;
19998;SDS011;10160;50.926;4.374;2023-07-09T02:41:52;14.65;;;6.32;;
19998;SDS011;10160;50.926;4.374;2023-07-09T02:44:18;12.25;;;6.15;;
19998;SDS011;10160;50.926;4.374;2023-07-09T02:46:47;15.15;;;5.88;;
19998;SDS011;10160;50.926;4.374;2023-07-09T02:49:13;12.48;;;5.13;;
19998;SDS011;10160;50.926;4.374;2023-07-09T02:51:39;17.40;;;6.10;;
19998;SDS011;10160;50.926;4.374;2023-07-09T02:54:05;11.57;;;5.50;;
19998;SDS011;10160;50.926;4.374;2023-07-09T02:56:31;11.27;;;6.03;;
19998;SDS011;10160;50.926;4.374;2023-07-09T02:58:57;8.80;;;5.00;;
19998;SDS011;10160;50.926;4.374;2023-07-09T03:01:24;11.13;;;5.50;;
19998;SDS011;10160;50.926;4.374;2023-07-09T03:03:52;9.60;;;5.40;;
19998;SDS011;10160;50.926;4.374;2023-07-09T03:06:19;12.98;;;5.55;;
19998;SDS011;10160;50.926;4.374;2023-07-09T03:08:46;13.77;;;5.32;;
19998;SDS011;10160;50.926;4.374;2023-07-09T03:11:12;11.13;;;5.25;;
19998;SDS011;10160;50.926;4.374;2023-07-09T03:13:39;10.27;;;5.57;;
19998;SDS011;10160;50.926;4.374;2023-07-09T03:16:05;19.65;;;5.35;;
19998;SDS011;10160;50.926;4.374;2023-07-09T03:18:31;12.35;;;5.13;;
19998;SDS011;10160;50.926;4.374;2023-07-09T03:20:59;16.73;;;6.30;;
19998;SDS011;10160;50.926;4.374;2023-07-09T03:23:25;8.50;;;4.95;;
19998;SDS011;10160;50.926;4.374;2023-07-09T03:25:50;13.27;;;5.85;;
19998;SDS011;10160;50.926;4.374;2023-07-09T03:28:16;11.35;;;5.00;;
19998;SDS011;10160;50.926;4.374;2023-07-09T03:30:42;9.48;;;5.22;;
19998;SDS011;10160;50.926;4.374;2023-07-09T03:33:09;11.82;;;4.90;;
19998;SDS011;10160;50.926;4.374;2023-07-09T03:35:35;10.05;;;4.55;;
19998;SDS011;10160;50.926;4.374;2023-07-09T03:38:03;13.80;;;5.10;;
19998;SDS011;10160;50.926;4.374;2023-07-09T03:40:29;10.60;;;4.88;;
19998;SDS011;10160;50.926;4.374;2023-07-09T03:42:55;11.95;;;4.85;;
19998;SDS011;10160;50.926;4.374;2023-07-09T03:45:20;13.48;;;5.18;;
19998;SDS011;10160;50.926;4.374;2023-07-09T03:47:46;13.27;;;4.70;;
19998;SDS011;10160;50.926;4.374;2023-07-09T03:50:12;13.60;;;4.93;;
19998;SDS011;10160;50.926;4.374;2023-07-09T03:52:37;8.68;;;4.78;;
19998;SDS011;10160;50.926;4.374;2023-07-09T03:55:09;9.25;;;4.85;;
19998;SDS011;10160;50.926;4.374;2023-07-09T03:57:35;10.27;;;5.00;;
19998;SDS011;10160;50.926;4.374;2023-07-09T04:00:02;11.90;;;5.00;;
19998;SDS011;10160;50.926;4.374;2023-07-09T04:02:29;11.30;;;5.22;;
19998;SDS011;10160;50.926;4.374;2023-07-09T04:04:54;10.50;;;5.20;;
19998;SDS011;10160;50.926;4.374;2023-07-09T04:07:20;11.32;;;5.28;;
19998;SDS011;10160;50.926;4.374;2023-07-09T04:09:46;9.57;;;5.28;;
19998;SDS011;10160;50.926;4.374;2023-07-09T04:12:11;8.55;;;5.03;;
19998;SDS011;10160;50.926;4.374;2023-07-09T04:14:37;9.18;;;5.18;;
19998;SDS011;10160;50.926;4.374;2023-07-09T04:17:02;10.35;;;4.78;;
19998;SDS011;10160;50.926;4.374;2023-07-09T04:19:28;12.48;;;5.45;;
19998;SDS011;10160;50.926;4.374;2023-07-09T04:21:54;13.10;;;5.20;;
19998;SDS011;10160;50.926;4.374;2023-07-09T04:24:20;13.02;;;5.28;;
19998;SDS011;10160;50.926;4.374;2023-07-09T04:26:46;10.60;;;5.15;;
19998;SDS011;10160;50.926;4.374;2023-07-09T04:29:13;13.18;;;5.15;;
19998;SDS011;10160;50.926;4.374;2023-07-09T04:31:39;11.90;;;5.45;;
19998;SDS011;10160;50.926;4.374;2023-07-09T04:34:06;11.52;;;5.25;;
19998;SDS011;10160;50.926;4.374;2023-07-09T04:36:32;13.35;;;5.40;;
19998;SDS011;10160;50.926;4.374;2023-07-09T04:38:58;11.13;;;5.38;;
19998;SDS011;10160;50.926;4.374;2023-07-09T04:41:24;12.35;;;5.03;;
19998;SDS011;10160;50.926;4.374;2023-07-09T04:43:50;10.60;;;5.20;;
19998;SDS011;10160;50.926;4.374;2023-07-09T04:46:16;14.95;;;5.80;;
19998;SDS011;10160;50.926;4.374;2023-07-09T04:48:42;12.45;;;5.60;;
19998;SDS011;10160;50.926;4.374;2023-07-09T04:51:07;12.73;;;5.30;;
19998;SDS011;10160;50.926;4.374;2023-07-09T04:53:33;11.68;;;5.03;;
19998;SDS011;10160;50.926;4.374;2023-07-09T04:55:59;13.27;;;5.95;;
19998;SDS011;10160;50.926;4.374;2023-07-09T04:58:24;15.90;;;5.85;;
19998;SDS011;10160;50.926;4.374;2023-07-09T05:00:50;10.90;;;5.47;;
19998;SDS011;10160;50.926;4.374;2023-07-09T05:03:18;11.15;;;5.63;;
19998;SDS011;10160;50.926;4.374;2023-07-09T05:05:47;11.45;;;5.20;;
19998;SDS011;10160;50.926;4.374;2023-07-09T05:08:13;11.65;;;6.00;;
19998;SDS011;10160;50.926;4.374;2023-07-09T05:10:46;14.80;;;5.70;;
19998;SDS011;10160;50.926;4.374;2023-07-09T05:13:15;12.25;;;5.20;;
19998;SDS011;10160;50.926;4.374;2023-07-09T05:15:41;15.25;;;6.07;;
19998;SDS011;10160;50.926;4.374;2023-07-09T05:18:10;13.60;;;5.25;;
19998;SDS011;10160;50.926;4.374;2023-07-09T05:20:38;11.05;;;5.72;;
19998;SDS011;10160;50.926;4.374;2023-07-09T05:23:04;14.88;;;5.50;;
19998;SDS011;10160;50.926;4.374;2023-07-09T05:25:29;15.48;;;5.65;;
19998;SDS011;10160;50.926;4.374;2023-07-09T05:27:55;14.55;;;5.22;;
19998;SDS011;10160;50.926;4.374;2023-07-09T05:30:21;11.90;;;5.45;;
19998;SDS011;10160;50.926;4.374;2023-07-09T05:32:47;13.18;;;5.10;;
19998;SDS011;10160;50.926;4.374;2023-07-09T05:35:13;9.35;;;5.13;;
19998;SDS011;10160;50.926;4.374;2023-07-09T05:37:39;15.63;;;6.05;;
19998;SDS011;10160;50.926;4.374;2023-07-09T05:40:05;12.90;;;5.50;;
19998;SDS011;10160;50.926;4.374;2023-07-09T05:42:32;14.57;;;5.10;;
19998;SDS011;10160;50.926;4.374;2023-07-09T05:44:58;13.25;;;5.35;;
19998;SDS011;10160;50.926;4.374;2023-07-09T05:47:24;15.30;;;5.68;;
19998;SDS011;10160;50.926;4.374;2023-07-09T05:49:50;18.55;;;5.50;;
19998;SDS011;10160;50.926;4.374;2023-07-09T05:52:20;12.50;;;5.25;;
19998;SDS011;10160;50.926;4.374;2023-07-09T05:54:50;12.65;;;5.80;;
19998;SDS011;10160;50.926;4.374;2023-07-09T05:57:17;11.10;;;4.97;;
19998;SDS011;10160;50.926;4.374;2023-07-09T05:59:43;16.90;;;5.43;;
19998;SDS011;10160;50.926;4.374;2023-07-09T06:02:16;11.73;;;5.35;;
19998;SDS011;10160;50.926;4.374;2023-07-09T06:04:43;11.80;;;5.50;;
19998;SDS011;10160;50.926;4.374;2023-07-09T06:07:10;10.77;;;5.60;;
19998;SDS011;10160;50.926;4.374;2023-07-09T06:09:37;13.80;;;5.50;;
19998;SDS011;10160;50.926;4.374;2023-07-09T06:12:03;11.85;;;5.82;;
19998;SDS011;10160;50.926;4.374;2023-07-09T06:14:30;16.05;;;6.50;;
19998;SDS011;10160;50.926;4.374;2023-07-09T06:16:57;11.98;;;5.68;;
19998;SDS011;10160;50.926;4.374;2023-07-09T06:19:23;14.30;;;6.63;;
19998;SDS011;10160;50.926;4.374;2023-07-09T06:21:48;14.05;;;7.00;;
19998;SDS011;10160;50.926;4.374;2023-07-09T06:24:14;13.88;;;7.22;;
19998;SDS011;10160;50.926;4.374;2023-07-09T06:26:40;18.35;;;7.05;;
19998;SDS011;10160;50.926;4.374;2023-07-09T06:29:05;12.48;;;6.50;;
19998;SDS011;10160;50.926;4.374;2023-07-09T06:31:31;17.30;;;7.55;;
19998;SDS011;10160;50.926;4.374;2023-07-09T06:33:57;17.42;;;8.77;;
19998;SDS011;10160;50.926;4.374;2023-07-09T06:36:22;14.75;;;7.63;;
19998;SDS011;10160;50.926;4.374;2023-07-09T06:38:48;18.25;;;9.38;;
19998;SDS011;10160;50.926;4.374;2023-07-09T06:41:14;18.40;;;9.77;;
19998;SDS011;10160;50.926;4.374;2023-07-09T06:43:40;18.73;;;9.50;;
19998;SDS011;10160;50.926;4.374;2023-07-09T06:46:07;18.08;;;10.00;;
19998;SDS011;10160;50.926;4.374;2023-07-09T06:48:35;17.42;;;10.15;;
19998;SDS011;10160;50.926;4.374;2023-07-09T06:51:04;18.23;;;10.25;;
19998;SDS011;10160;50.926;4.374;2023-07-09T06:53:30;21.92;;;11.20;;
19998;SDS011;10160;50.926;4.374;2023-07-09T06:55:56;22.27;;;11.50;;
19998;SDS011;10160;50.926;4.374;2023-07-09T06:58:24;23.83;;;11.95;;
19998;SDS011;10160;50.926;4.374;2023-07-09T07:00:52;22.73;;;12.30;;
19998;SDS011;10160;50.926;4.374;2023-07-09T07:03:19;29.98;;;15.48;;
19998;SDS011;10160;50.926;4.374;2023-07-09T07:05:46;32.30;;;16.17;;
19998;SDS011;10160;50.926;4.374;2023-07-09T07:08:14;28.92;;;16.00;;
19998;SDS011;10160;50.926;4.374;2023-07-09T07:10:41;29.75;;;18.33;;
19998;SDS011;10160;50.926;4.374;2023-07-09T07:13:07;34.05;;;19.25;;
19998;SDS011;10160;50.926;4.374;2023-07-09T07:15:33;36.15;;;19.95;;
19998;SDS011;10160;50.926;4.374;2023-07-09T07:18:01;34.72;;;20.65;;
19998;SDS011;10160;50.926;4.374;2023-07-09T07:20:27;37.13;;;21.83;;
19998;SDS011;10160;50.926;4.374;2023-07-09T07:22:53;42.47;;;24.55;;
19998;SDS011;10160;50.926;4.374;2023-07-09T07:25:18;39.03;;;24.00;;
19998;SDS011;10160;50.926;4.374;2023-07-09T07:27:44;41.38;;;25.48;;
19998;SDS011;10160;50.926;4.374;2023-07-09T07:30:09;47.85;;;29.90;;
19998;SDS011;10160;50.926;4.374;2023-07-09T07:32:37;47.15;;;28.90;;
19998;SDS011;10160;50.926;4.374;2023-07-09T07:35:03;50.22;;;28.60;;
19998;SDS011;10160;50.926;4.374;2023-07-09T07:37:29;45.05;;;29.38;;
19998;SDS011;10160;50.926;4.374;2023-07-09T07:39:58;52.17;;;29.60;;
19998;SDS011;10160;50.926;4.374;2023-07-09T07:42:24;47.42;;;28.63;;
19998;SDS011;10160;50.926;4.374;2023-07-09T07:44:50;45.72;;;26.92;;
19998;SDS011;10160;50.926;4.374;2023-07-09T07:47:15;51.30;;;30.85;;
19998;SDS011;10160;50.926;4.374;2023-07-09T07:49:41;50.95;;;30.92;;
19998;SDS011;10160;50.926;4.374;2023-07-09T07:52:07;44.40;;;28.92;;
19998;SDS011;10160;50.926;4.374;2023-07-09T07:54:33;44.35;;;28.38;;
19998;SDS011;10160;50.926;4.374;2023-07-09T07:56:59;51.53;;;29.98;;
19998;SDS011;10160;50.926;4.374;2023-07-09T07:59:25;52.03;;;30.85;;
19998;SDS011;10160;50.926;4.374;2023-07-09T08:01:51;50.47;;;28.25;;
19998;SDS011;10160;50.926;4.374;2023-07-09T08:04:16;40.97;;;27.15;;
19998;SDS011;10160;50.926;4.374;2023-07-09T08:06:42;45.13;;;27.70;;
19998;SDS011;10160;50.926;4.374;2023-07-09T08:09:08;48.20;;;29.65;;
19998;SDS011;10160;50.926;4.374;2023-07-09T08:11:34;47.47;;;31.83;;
19998;SDS011;10160;50.926;4.374;2023-07-09T08:14:00;57.33;;;34.70;;
19998;SDS011;10160;50.926;4.374;2023-07-09T08:16:25;60.58;;;36.22;;
19998;SDS011;10160;50.926;4.374;2023-07-09T08:18:52;53.80;;;32.50;;
19998;SDS011;10160;50.926;4.374;2023-07-09T08:21:18;55.10;;;33.40;;
19998;SDS011;10160;50.926;4.374;2023-07-09T08:23:44;57.10;;;34.75;;
19998;SDS011;10160;50.926;4.374;2023-07-09T08:26:10;52.03;;;29.40;;
19998;SDS011;10160;50.926;4.374;2023-07-09T08:28:37;53.53;;;31.98;;
19998;SDS011;10160;50.926;4.374;2023-07-09T08:31:03;51.08;;;32.97;;
19998;SDS011;10160;50.926;4.374;2023-07-09T08:33:29;55.95;;;34.13;;
19998;SDS011;10160;50.926;4.374;2023-07-09T08:35:55;51.33;;;34.25;;
19998;SDS011;10160;50.926;4.374;2023-07-09T08:38:21;53.22;;;31.63;;
19998;SDS011;10160;50.926;4.374;2023-07-09T08:40:56;56.40;;;35.08;;
19998;SDS011;10160;50.926;4.374;2023-07-09T08:46:30;53.38;;;31.83;;
19998;SDS011;10160;50.926;4.374;2023-07-09T08:49:08;53.05;;;35.50;;
19998;SDS011;10160;50.926;4.374;2023-07-09T08:51:41;49.38;;;33.25;;
19998;SDS011;10160;50.926;4.374;2023-07-09T08:54:14;52.95;;;35.80;;
19998;SDS011;10160;50.926;4.374;2023-07-09T08:56:47;59.20;;;35.20;;
19998;SDS011;10160;50.926;4.374;2023-07-09T08:59:14;54.97;;;36.35;;
19998;SDS011;10160;50.926;4.374;2023-07-09T09:01:51;59.78;;;38.22;;
19998;SDS011;10160;50.926;4.374;2023-07-09T09:04:29;56.78;;;34.90;;
19998;SDS011;10160;50.926;4.374;2023-07-09T09:10:03;53.17;;;34.03;;
19998;SDS011;10160;50.926;4.374;2023-07-09T09:12:31;52.67;;;33.53;;
19998;SDS011;10160;50.926;4.374;2023-07-09T09:15:04;62.65;;;39.35;;
19998;SDS011;10160;50.926;4.374;2023-07-09T09:17:35;53.42;;;34.63;;
19998;SDS011;10160;50.926;4.374;2023-07-09T09:20:05;55.22;;;36.92;;
19998;SDS011;10160;50.926;4.374;2023-07-09T09:22:44;51.15;;;35.40;;
19998;SDS011;10160;50.926;4.374;2023-07-09T09:25:28;46.88;;;32.72;;
19998;SDS011;10160;50.926;4.374;2023-07-09T09:27:56;48.53;;;31.23;;
19998;SDS011;10160;50.926;4.374;2023-07-09T09:30:25;45.80;;;30.83;;
19998;SDS011;10160;50.926;4.374;2023-07-09T09:35:31;44.20;;;28.88;;
19998;SDS011;10160;50.926;4.374;2023-07-09T09:37:59;39.85;;;25.42;;
19998;SDS011;10160;50.926;4.374;2023-07-09T09:40:32;42.53;;;30.17;;
19998;SDS011;10160;50.926;4.374;2023-07-09T09:43:01;39.47;;;27.27;;
19998;SDS011;10160;50.926;4.374;2023-07-09T09:45:28;37.60;;;24.42;;
19998;SDS011;10160;50.926;4.374;2023-07-09T09:48:00;35.95;;;24.83;;
19998;SDS011;10160;50.926;4.374;2023-07-09T09:50:27;37.22;;;23.65;;
19998;SDS011;10160;50.926;4.374;2023-07-09T09:52:57;33.03;;;21.52;;
19998;SDS011;10160;50.926;4.374;2023-07-09T09:55:29;30.92;;;18.50;;
19998;SDS011;10160;50.926;4.374;2023-07-09T09:57:57;33.30;;;21.15;;
19998;SDS011;10160;50.926;4.374;2023-07-09T10:00:24;28.40;;;20.55;;
19998;SDS011;10160;50.926;4.374;2023-07-09T10:03:02;35.60;;;17.98;;
19998;SDS011;10160;50.926;4.374;2023-07-09T10:05:32;24.00;;;14.98;;
19998;SDS011;10160;50.926;4.374;2023-07-09T10:11:11;21.38;;;13.77;;
19998;SDS011;10160;50.926;4.374;2023-07-09T10:13:43;27.60;;;14.82;;
19998;SDS011;10160;50.926;4.374;2023-07-09T10:19:01;19.58;;;11.30;;
19998;SDS011;10160;50.926;4.374;2023-07-09T10:22:06;16.50;;;9.50;;
19998;SDS011;10160;50.926;4.374;2023-07-09T10:24:50;19.75;;;9.48;;
19998;SDS011;10160;50.926;4.374;2023-07-09T10:27:28;15.85;;;7.68;;
19998;SDS011;10160;50.926;4.374;2023-07-09T10:35:35;15.95;;;6.80;;
19998;SDS011;10160;50.926;4.374;2023-07-09T10:40:59;15.85;;;7.28;;
19998;SDS011;10160;50.926;4.374;2023-07-09T10:46:16;12.38;;;7.25;;
19998;SDS011;10160;50.926;4.374;2023-07-09T10:48:50;15.00;;;6.82;;
19998;SDS011;10160;50.926;4.374;2023-07-09T10:54:24;13.35;;;6.05;;
19998;SDS011;10160;50.926;4.374;2023-07-09T10:57:05;10.73;;;5.28;;
19998;SDS011;10160;50.926;4.374;2023-07-09T10:59:46;16.02;;;5.70;;
19998;SDS011;10160;50.926;4.374;2023-07-09T11:02:17;14.40;;;4.93;;
19998;SDS011;10160;50.926;4.374;2023-07-09T11:05:03;15.02;;;5.20;;
19998;SDS011;10160;50.926;4.374;2023-07-09T11:08:18;10.57;;;4.50;;
19998;SDS011;10160;50.926;4.374;2023-07-09T11:10:31;10.40;;;5.07;;
19998;SDS011;10160;50.926;4.374;2023-07-09T11:13:11;13.50;;;4.70;;
19998;SDS011;10160;50.926;4.374;2023-07-09T11:15:45;10.77;;;4.15;;
19998;SDS011;10160;50.926;4.374;2023-07-09T11:18:14;9.25;;;4.20;;
19998;SDS011;10160;50.926;4.374;2023-07-09T11:20:45;10.02;;;3.95;;
19998;SDS011;10160;50.926;4.374;2023-07-09T11:23:22;11.35;;;4.00;;
19998;SDS011;10160;50.926;4.374;2023-07-09T11:28:39;16.63;;;4.68;;
19998;SDS011;10160;50.926;4.374;2023-07-09T11:31:52;13.27;;;4.53;;
19998;SDS011;10160;50.926;4.374;2023-07-09T11:44:59;8.13;;;4.05;;
19998;SDS011;10160;50.926;4.374;2023-07-09T11:47:49;10.18;;;4.25;;
19998;SDS011;10160;50.926;4.374;2023-07-09T11:52:56;9.82;;;3.83;;
19998;SDS011;10160;50.926;4.374;2023-07-09T11:55:26;10.45;;;3.63;;
19998;SDS011;10160;50.926;4.374;2023-07-09T11:58:09;9.50;;;3.90;;
19998;SDS011;10160;50.926;4.374;2023-07-09T12:00:38;8.73;;;3.53;;
19998;SDS011;10160;50.926;4.374;2023-07-09T12:03:11;8.05;;;3.90;;
19998;SDS011;10160;50.926;4.374;2023-07-09T12:05:52;7.88;;;3.63;;
19998;SDS011;10160;50.926;4.374;2023-07-09T12:08:29;10.45;;;3.97;;
19998;SDS011;10160;50.926;4.374;2023-07-09T12:11:04;9.05;;;4.32;;
19998;SDS011;10160;50.926;4.374;2023-07-09T12:13:39;10.48;;;4.03;;
19998;SDS011;10160;50.926;4.374;2023-07-09T12:16:24;10.63;;;3.75;;
19998;SDS011;10160;50.926;4.374;2023-07-09T12:18:55;7.80;;;3.90;;
19998;SDS011;10160;50.926;4.374;2023-07-09T12:21:21;7.63;;;3.45;;
19998;SDS011;10160;50.926;4.374;2023-07-09T12:23:48;8.80;;;3.72;;
19998;SDS011;10160;50.926;4.374;2023-07-09T12:26:16;7.57;;;3.83;;
19998;SDS011;10160;50.926;4.374;2023-07-09T12:28:49;13.90;;;4.40;;
19998;SDS011;10160;50.926;4.374;2023-07-09T12:31:20;11.75;;;4.88;;
19998;SDS011;10160;50.926;4.374;2023-07-09T12:33:56;9.55;;;4.82;;
19998;SDS011;10160;50.926;4.374;2023-07-09T12:36:23;10.15;;;5.28;;
19998;SDS011;10160;50.926;4.374;2023-07-09T12:38:53;11.73;;;5.80;;
19998;SDS011;10160;50.926;4.374;2023-07-09T12:41:23;15.07;;;6.43;;
19998;SDS011;10160;50.926;4.374;2023-07-09T12:43:50;17.42;;;6.95;;
19998;SDS011;10160;50.926;4.374;2023-07-09T12:46:18;13.95;;;7.05;;
19998;SDS011;10160;50.926;4.374;2023-07-09T12:48:48;18.70;;;7.47;;
19998;SDS011;10160;50.926;4.374;2023-07-09T12:51:21;19.35;;;7.07;;
19998;SDS011;10160;50.926;4.374;2023-07-09T12:56:40;20.35;;;9.07;;
19998;SDS011;10160;50.926;4.374;2023-07-09T12:59:15;22.33;;;8.55;;
19998;SDS011;10160;50.926;4.374;2023-07-09T13:04:39;18.33;;;9.07;;
19998;SDS011;10160;50.926;4.374;2023-07-09T13:07:29;21.60;;;9.27;;
19998;SDS011;10160;50.926;4.374;2023-07-09T13:09:58;16.60;;;8.65;;
19998;SDS011;10160;50.926;4.374;2023-07-09T13:12:40;18.17;;;8.77;;
19998;SDS011;10160;50.926;4.374;2023-07-09T13:15:18;16.67;;;9.23;;
19998;SDS011;10160;50.926;4.374;2023-07-09T13:17:56;15.77;;;7.93;;
19998;SDS011;10160;50.926;4.374;2023-07-09T13:20:22;16.38;;;9.27;;
19998;SDS011;10160;50.926;4.374;2023-07-09T13:22:48;17.13;;;8.50;;
19998;SDS011;10160;50.926;4.374;2023-07-09T13:25:14;18.75;;;10.13;;
19998;SDS011;10160;50.926;4.374;2023-07-09T13:27:39;19.15;;;9.63;;
19998;SDS011;10160;50.926;4.374;2023-07-09T13:30:05;16.30;;;8.50;;
19998;SDS011;10160;50.926;4.374;2023-07-09T13:32:32;14.98;;;6.82;;
19998;SDS011;10160;50.926;4.374;2023-07-09T13:34:58;17.38;;;7.80;;
19998;SDS011;10160;50.926;4.374;2023-07-09T13:37:41;15.23;;;7.28;;
19998;SDS011;10160;50.926;4.374;2023-07-09T13:40:08;14.13;;;7.15;;
19998;SDS011;10160;50.926;4.374;2023-07-09T13:42:40;13.10;;;6.50;;
19998;SDS011;10160;50.926;4.374;2023-07-09T13:45:21;12.13;;;5.97;;
19998;SDS011;10160;50.926;4.374;2023-07-09T13:47:49;14.65;;;6.18;;
19998;SDS011;10160;50.926;4.374;2023-07-09T13:50:16;10.32;;;5.53;;
19998;SDS011;10160;50.926;4.374;2023-07-09T13:52:42;11.90;;;5.28;;
19998;SDS011;10160;50.926;4.374;2023-07-09T13:55:16;14.05;;;5.75;;
19998;SDS011;10160;50.926;4.374;2023-07-09T13:57:48;15.38;;;5.25;;
19998;SDS011;10160;50.926;4.374;2023-07-09T14:00:14;11.32;;;5.68;;
19998;SDS011;10160;50.926;4.374;2023-07-09T14:02:41;13.57;;;6.10;;
19998;SDS011;10160;50.926;4.374;2023-07-09T14:05:07;14.48;;;6.38;;
19998;SDS011;10160;50.926;4.374;2023-07-09T14:07:35;12.93;;;4.88;;
19998;SDS011;10160;50.926;4.374;2023-07-09T14:10:04;10.75;;;5.00;;
19998;SDS011;10160;50.926;4.374;2023-07-09T14:12:31;10.38;;;5.18;;
19998;SDS011;10160;50.926;4.374;2023-07-09T14:15:01;10.93;;;5.38;;
19998;SDS011;10160;50.926;4.374;2023-07-09T14:17:27;9.05;;;4.80;;
19998;SDS011;10160;50.926;4.374;2023-07-09T14:19:53;10.13;;;4.50;;
19998;SDS011;10160;50.926;4.374;2023-07-09T14:24:47;12.32;;;5.60;;
19998;SDS011;10160;50.926;4.374;2023-07-09T14:27:13;11.43;;;5.15;;
19998;SDS011;10160;50.926;4.374;2023-07-09T14:29:39;11.25;;;5.30;;
19998;SDS011;10160;50.926;4.374;2023-07-09T14:32:05;10.80;;;5.13;;
19998;SDS011;10160;50.926;4.374;2023-07-09T14:34:47;12.75;;;5.38;;
19998;SDS011;10160;50.926;4.374;2023-07-09T14:37:12;12.45;;;5.55;;
19998;SDS011;10160;50.926;4.374;2023-07-09T14:39:38;12.50;;;5.35;;
19998;SDS011;10160;50.926;4.374;2023-07-09T14:42:04;11.25;;;4.93;;
19998;SDS011;10160;50.926;4.374;2023-07-09T14:44:30;11.07;;;4.93;;
19998;SDS011;10160;50.926;4.374;2023-07-09T14:46:57;12.63;;;5.00;;
19998;SDS011;10160;50.926;4.374;2023-07-09T14:49:24;11.05;;;4.75;;
19998;SDS011;10160;50.926;4.374;2023-07-09T14:51:52;12.32;;;4.70;;
19998;SDS011;10160;50.926;4.374;2023-07-09T14:54:22;11.30;;;4.57;;
19998;SDS011;10160;50.926;4.374;2023-07-09T14:56:50;12.95;;;4.60;;
19998;SDS011;10160;50.926;4.374;2023-07-09T14:59:17;12.15;;;5.00;;
19998;SDS011;10160;50.926;4.374;2023-07-09T15:01:43;12.90;;;5.22;;
19998;SDS011;10160;50.926;4.374;2023-07-09T15:04:31;11.27;;;4.90;;
19998;SDS011;10160;50.926;4.374;2023-07-09T15:06:58;13.63;;;4.30;;
19998;SDS011;10160;50.926;4.374;2023-07-09T15:09:25;11.13;;;4.32;;
19998;SDS011;10160;50.926;4.374;2023-07-09T15:11:56;9.30;;;4.07;;
19998;SDS011;10160;50.926;4.374;2023-07-09T15:14:23;11.43;;;4.07;;
19998;SDS011;10160;50.926;4.374;2023-07-09T15:16:50;10.18;;;4.00;;
19998;SDS011;10160;50.926;4.374;2023-07-09T15:19:17;12.63;;;4.10;;
19998;SDS011;10160;50.926;4.374;2023-07-09T15:21:45;9.00;;;4.38;;
19998;SDS011;10160;50.926;4.374;2023-07-09T15:24:21;8.73;;;3.97;;
19998;SDS011;10160;50.926;4.374;2023-07-09T15:27:05;10.70;;;4.32;;
19998;SDS011;10160;50.926;4.374;2023-07-09T15:29:33;13.98;;;4.35;;
19998;SDS011;10160;50.926;4.374;2023-07-09T15:31:58;11.30;;;4.38;;
19998;SDS011;10160;50.926;4.374;2023-07-09T15:34:24;10.95;;;4.30;;
19998;SDS011;10160;50.926;4.374;2023-07-09T15:36:51;9.77;;;3.20;;
19998;SDS011;10160;50.926;4.374;2023-07-09T15:39:17;9.15;;;3.00;;
19998;SDS011;10160;50.926;4.374;2023-07-09T15:41:45;8.35;;;3.20;;